Terminal Aerodrome Forecast
Issued by NWS Jackson, MS

Home | Current Version | Previous Version | Text Only | Print | Product List | Glossary On
Versions: 1 2 3 4 5 6 7 8 9 10 11
120
FTUS44 KJAN 271145
TAFHBG
TAF
KHBG 271145Z 2712/2812 28008KT P6SM SCT008 BKN015 OVC070
     FM271600 27006KT P6SM SCT250
     FM280900 16006KT P6SM OVC007=

USA.gov is the U.S. government's official web portal to all federal, state and local government web resources and services.